Airfield :
LOGIN :

Register | Disclaimer

   EN    FR    IT 

 










Legend :    VFR   Marginal VFR   IFR   Intensive IFR   Very Intensive IFR
Visi :
Ceiling :
>= 8 km
>= 3000ft
5 to 8 km
1000 to 3000 ft
1500m to 5 km
500 to 1000 ft
800 to 1500m
200 to 500 ft
< 800m
< 200 ft
Symbols :   Thunderstorms  Fog  Heavy snow  Heavy precipitations  Wind > 20 kt
SIGMETs :     Misc.  Thunderstorms  Icing  Turbulence  Mountain Waves  Volcanic Ashes






- Airport Elevation : 1017 ft


LFSL - Brive Souillac

CURRENT METAR :
  • 180330Z AUTO 00000KT CAVOK M03/M04 Q1030 NOSIG

EXPIRED METARs :
  • 180300Z AUTO 00000KT CAVOK M03/M03 Q1031 NOSIG
  • 180230Z AUTO VRB02KT CAVOK M02/M03 Q1031
  • 180200Z AUTO 01004KT CAVOK M01/M02 Q1031
  • 180130Z AUTO 01005KT CAVOK 01/M01 Q1032
  • 180100Z AUTO 01004KT 340V040 CAVOK M02/M02 Q1032
  • 180030Z AUTO VRB02KT CAVOK M01/M02 Q1032

TAF TAF LFSL
Valid from the 18 at 03:00 until the 18 at 12:00 UTC


180200Z 1803/1812 VRB03KT CAVOK
TEMPO 1807/1812 4000 BR BKN003



MET'MAP, your aeronautical weather chart ! - Copyright ORBIFLY December 2007 - Disclaimer

ORBIFLY MET'MAP TEAM :

Programming & Development : Alexandra Zaïnal
Concept & original design : Baudouin d'Aumeries
Assistance for programming : Marc-Olivier Méhu
Technical & hardware support : Manuel Goepfert

Contact : metmap@orbifly.com




SOURCES & CREDITS :

   NOAA